Whitesville, NY

10:12 PM EDT on April 21, 2015 (GMT -0400)
Wellsville Municipal-Tarantine | | Change Station
CLOSE
Current Station
Airport
Location: Wellsville,
Elevation: 2123 ft
Nearby Weather Stations

Elev 2123 ft 42.11 °N, 77.98 °W | Updated 16 minutes ago

Partly Cloudy
Partly Cloudy
41 °F
Feels Like 36 °F
N
8
Wind Variable Wind from SW

Today
High -- | Low -- °F
--% Chance of Precip.
Yesterday
High -- | Low -- °F
Precip. -- in
6:21 AM 7:58 PM
Waxing Crescent, 14% visible
Pressure 29.75 in
Visibility 10.0 miles
Clouds Scattered Clouds 6000 ft
Scattered Clouds 7500 ft
Mostly Cloudy 8500 ft
Windchill 36 °F
Dew Point 30 °F
Humidity 65%
Rainfall 0.03 in
Snow Depth Not available.
UV 0 out of 12
Pollen 10.30 out of 12
Air Quality Not available.
Flu Activity Widespread
METAR KELZ 220156Z AUTO 22007KT 10SM SCT060 SCT075 BKN085 05/M01 A2972 RMK AO2 RAB22E35 SLP074 P0000 T00501011 $

More Conditions Fewer Conditions

Pressure 29.75 in
Visibility 10.0 miles
Clouds Scattered Clouds 6000 ft
Scattered Clouds 7500 ft
Mostly Cloudy 8500 ft
Windchill 36 °F
Dew Point 30 °F
Humidity 65%
Rainfall 0.03 in
Snow Depth Not available.
UV 0 out of 12
Pollen 10.30 out of 12
Air Quality Not available.
Flu Activity Widespread
METAR KELZ 220156Z AUTO 22007KT 10SM SCT060 SCT075 BKN085 05/M01 A2972 RMK AO2 RAB22E35 SLP074 P0000 T00501011 $

More Conditions Fewer Conditions

10-Day Weather Forecast

Almanac

Astronomy

Apr. 21, 2015 Rise Set
Actual Time
Civil Twilight
Nautical Twilight
Astronomical Twilight
Moon
Length of Visible Light
Length of Day
Tomorrow will be .
, % of the Moon is Illuminated

Today's Extremes

State Highs State Lows

Community

WunderPhotos

Upload Photos

1,815,634 photos uploaded!

WunderBlogs® & News

Nearby

Air Quality

  Air Quality AQ Index Pollutant
Not available.

Snow Depth

Station Depth Elevation

Earthquake Activity

City Distance Mag. Time & Date
Minimum magnitude displayed is 2.5.

Coastal Water Temperatures

Place Temperature

Stations

Nearby Weather Stations

Station Location Temp. Windchill Dew Point Humidity Wind Precip. Elev Updated Type